Time;durP1;ratioP1;P1;durP2;ratioP2;P2;SDS_P1;SDS_P2;PMS_P1;PMS_P2;Temp;Humidity;BMP_temperature;BMP_pressure;BME280_temperature;BME280_humidity;BME280_pressure;Samples;Min_cycle;Max_cycle;Signal;HPM_P1;HPM_P2
2022/03/28 00:01:36;;;;;;;22.55;8.40;;;;;;;11.44;46.69;100948.00;5089568;28;20025;-75
2022/03/28 00:04:02;;;;;;;24.38;9.30;;;;;;;11.56;46.80;100967.31;5085881;28;20046;-76
2022/03/28 00:06:27;;;;;;;20.92;9.55;;;;;;;11.26;47.01;100931.09;5082190;28;20025;-75
2022/03/28 00:08:53;;;;;;;21.40;8.55;;;;;;;11.16;48.42;100976.16;5085511;28;20500;-76
2022/03/28 00:11:19;;;;;;;25.05;8.73;;;;;;;10.59;49.81;100974.13;5088431;28;20028;-75
2022/03/28 00:13:45;;;;;;;20.67;8.63;;;;;;;10.32;50.57;100972.00;5082952;28;20074;-75
2022/03/28 00:16:11;;;;;;;24.15;8.85;;;;;;;9.99;51.23;100923.59;5088268;28;20231;-75
2022/03/28 00:18:37;;;;;;;19.52;8.25;;;;;;;9.81;52.72;100985.97;5087442;28;20047;-75
2022/03/28 00:21:03;;;;;;;25.45;9.00;;;;;;;9.59;53.47;100979.81;5085310;28;20196;-74
2022/03/28 00:23:30;;;;;;;21.52;8.50;;;;;;;9.76;53.16;100983.69;5087544;28;20081;-74
2022/03/28 00:25:56;;;;;;;22.65;9.25;;;;;;;9.58;53.61;100978.13;5084965;28;20201;-76
2022/03/28 00:28:21;;;;;;;15.85;9.05;;;;;;;9.39;54.40;100971.81;5084483;28;20093;-74
2022/03/28 00:30:47;;;;;;;20.52;8.68;;;;;;;9.44;54.96;100977.56;5082814;28;20025;-74
2022/03/28 00:33:12;;;;;;;20.42;9.10;;;;;;;8.95;56.28;100966.47;5094262;28;20117;-75
2022/03/28 00:35:38;;;;;;;22.05;9.52;;;;;;;8.65;58.27;100979.44;5103593;28;20032;-74
2022/03/28 00:38:05;;;;;;;20.98;9.80;;;;;;;8.53;59.10;100986.50;5090780;28;20080;-75
2022/03/28 00:40:32;;;;;;;19.17;8.65;;;;;;;8.18;61.24;100986.50;5087792;28;20027;-75
2022/03/28 00:43:03;;;;;;;21.02;9.48;;;;;;;8.14;61.29;100981.59;5086904;28;20353;-74
2022/03/28 00:45:32;;;;;;;18.33;9.15;;;;;;;8.05;61.98;100975.22;5085992;28;20036;-75
2022/03/28 00:47:59;;;;;;;21.33;9.27;;;;;;;7.98;61.95;100980.09;5087085;28;20048;-76
2022/03/28 00:50:25;;;;;;;27.35;9.25;;;;;;;8.01;62.44;100984.31;5086151;28;20373;-74
2022/03/28 00:52:51;;;;;;;16.73;8.68;;;;;;;8.03;63.34;100992.94;5083388;28;20052;-75
2022/03/28 00:55:17;;;;;;;17.33;8.93;;;;;;;8.08;63.15;100984.69;5087250;28;20030;-75
2022/03/28 00:57:42;;;;;;;20.73;8.98;;;;;;;8.01;63.65;100984.31;5084304;28;20234;-74
2022/03/28 01:00:09;;;;;;;22.13;8.85;;;;;;;7.86;64.30;100990.75;5086793;28;20040;-75
2022/03/28 01:02:36;;;;;;;21.38;9.32;;;;;;;7.80;64.59;100975.38;5092279;28;20333;-75
2022/03/28 01:05:02;;;;;;;20.33;9.30;;;;;;;7.78;65.16;100993.09;5085909;28;20063;-75
2022/03/28 01:07:28;;;;;;;21.42;9.68;;;;;;;7.88;65.22;100991.47;5086505;28;20334;-74
2022/03/28 01:09:55;;;;;;;22.60;10.88;;;;;;;7.91;65.46;100988.59;5084455;28;20221;-75
2022/03/28 01:12:23;;;;;;;25.25;10.45;;;;;;;8.03;65.09;100992.94;5090107;28;20031;-75
2022/03/28 01:14:49;;;;;;;20.15;9.25;;;;;;;8.22;63.54;100992.41;5089437;28;20237;-76
2022/03/28 01:19:59;;;;;;;21.38;9.38;;;;;;;7.86;65.37;100999.50;5086058;28;20253;-75
2022/03/28 01:22:24;;;;;;;26.02;9.85;;;;;;;7.71;67.23;100998.00;5089317;28;20035;-75
2022/03/28 01:24:50;;;;;;;20.80;9.45;;;;;;;7.63;67.26;100993.28;5090510;28;20032;-75
2022/03/28 01:27:16;;;;;;;24.98;9.95;;;;;;;7.77;65.95;101004.59;5087006;28;20028;-75
2022/03/28 01:29:44;;;;;;;23.58;10.85;;;;;;;7.79;65.24;100987.72;5085450;28;20043;-75
2022/03/28 01:32:11;;;;;;;25.80;10.23;;;;;;;8.16;63.53;100985.78;5082421;28;20028;-75
2022/03/28 01:34:37;;;;;;;18.52;9.40;;;;;;;8.52;61.79;101003.31;5090537;28;20028;-75
2022/03/28 01:37:02;;;;;;;23.65;10.63;;;;;;;8.50;62.04;100999.09;5083495;28;20117;-75
2022/03/28 01:39:28;;;;;;;22.55;10.18;;;;;;;8.74;61.61;101007.78;5083394;28;20265;-75
2022/03/28 01:41:53;;;;;;;25.13;9.65;;;;;;;8.64;61.36;100999.72;5093858;28;20054;-75
2022/03/28 01:44:19;;;;;;;27.35;10.20;;;;;;;8.48;62.42;101003.66;5099261;28;20115;-76
2022/03/28 01:46:47;;;;;;;17.30;9.45;;;;;;;8.26;63.33;101010.53;5084736;28;20032;-74
2022/03/28 01:49:18;;;;;;;29.90;10.63;;;;;;;8.05;64.62;101011.31;5090524;28;20064;-74
2022/03/28 01:51:43;;;;;;;26.15;9.40;;;;;;;8.01;64.16;101005.41;5083625;28;20409;-75
2022/03/28 01:54:09;;;;;;;23.50;10.20;;;;;;;7.97;64.63;101011.88;5085153;28;20035;-74
2022/03/28 01:56:38;;;;;;;21.08;10.48;;;;;;;7.75;64.67;101006.50;5086632;28;20028;-75
2022/03/28 01:59:06;;;;;;;22.42;10.13;;;;;;;7.72;65.02;101007.56;5090915;28;20066;-75
2022/03/28 02:01:32;;;;;;;24.73;10.05;;;;;;;7.53;65.46;101020.41;5101234;28;20337;-75
2022/03/28 02:03:58;;;;;;;28.77;10.70;;;;;;;7.55;65.23;101018.53;5095899;28;20027;-75
2022/03/28 02:06:24;;;;;;;22.05;10.10;;;;;;;7.23;67.09;101012.91;5101460;28;20035;-75
2022/03/28 02:08:50;;;;;;;24.13;10.45;;;;;;;7.09;67.57;101002.50;5098327;28;20222;-75
2022/03/28 02:11:16;;;;;;;23.27;10.55;;;;;;;7.12;68.27;101018.94;5084694;28;20067;-75
2022/03/28 02:13:41;;;;;;;27.30;9.85;;;;;;;7.05;69.11;101029.06;5088937;28;20326;-74
2022/03/28 02:16:07;;;;;;;22.08;10.43;;;;;;;7.10;69.66;101018.19;5085031;28;20032;-76
2022/03/28 02:18:33;;;;;;;26.80;10.80;;;;;;;7.21;69.68;101018.28;5084615;28;20025;-75
2022/03/28 02:20:58;;;;;;;21.65;10.40;;;;;;;7.11;70.75;101025.16;5089915;28;20020;-75
2022/03/28 02:23:24;;;;;;;20.40;11.45;;;;;;;7.05;70.66;101013.25;5084962;28;20040;-75
2022/03/28 02:25:49;;;;;;;28.58;11.05;;;;;;;7.07;71.02;101021.06;5090054;28;20024;-74
2022/03/28 02:28:15;;;;;;;23.00;10.55;;;;;;;7.13;71.50;101025.88;5085042;28;20039;-74
2022/03/28 02:30:41;;;;;;;23.30;11.00;;;;;;;7.04;71.73;101030.00;5082848;28;20032;-75
2022/03/28 02:33:06;;;;;;;24.77;10.48;;;;;;;7.18;71.07;101033.47;5086807;28;20056;-75
2022/03/28 02:35:33;;;;;;;26.70;11.93;;;;;;;6.91;72.71;101044.16;5083281;28;20042;-75
2022/03/28 02:38:01;;;;;;;32.30;11.57;;;;;;;6.71;73.82;101041.09;5088183;28;20024;-75
2022/03/28 02:40:28;;;;;;;29.35;11.63;;;;;;;6.93;73.41;101040.47;5090655;28;20031;-74
2022/03/28 02:42:57;;;;;;;24.67;10.73;;;;;;;6.64;74.58;101029.31;5087551;28;20069;-75
2022/03/28 02:45:23;;;;;;;29.98;11.50;;;;;;;6.84;74.49;101037.63;5091189;28;20272;-75
2022/03/28 02:47:49;;;;;;;29.08;11.75;;;;;;;6.77;74.43;101025.84;5087654;28;20023;-75
2022/03/28 02:50:14;;;;;;;30.48;11.85;;;;;;;6.69;75.28;101036.91;5085497;28;20024;-75
2022/03/28 02:52:39;;;;;;;24.33;11.80;;;;;;;6.82;75.15;101048.25;5084688;28;20036;-75
2022/03/28 02:55:05;;;;;;;25.25;11.90;;;;;;;6.62;75.06;101031.22;5085725;28;20039;-75
2022/03/28 02:57:31;;;;;;;28.52;12.13;;;;;;;6.78;75.19;101049.44;5090183;28;20059;-75
2022/03/28 02:59:56;;;;;;;29.88;11.52;;;;;;;6.76;75.84;101039.94;5093318;28;20325;-74
2022/03/28 03:02:22;;;;;;;32.17;12.20;;;;;;;6.61;76.03;101049.75;5091075;28;20053;-76
2022/03/28 03:04:47;;;;;;;45.50;13.30;;;;;;;6.54;76.45;101043.22;5085339;28;20043;-76
2022/03/28 03:07:13;;;;;;;31.58;11.70;;;;;;;6.32;78.27;101055.19;5089356;28;20245;-76
2022/03/28 03:09:38;;;;;;;31.98;11.60;;;;;;;6.33;79.51;101053.41;5088415;28;20115;-75
2022/03/28 03:12:04;;;;;;;31.88;13.00;;;;;;;6.27;79.40;101054.66;5084317;28;20112;-74
2022/03/28 03:14:29;;;;;;;30.55;12.52;;;;;;;6.26;79.31;101037.19;5087790;28;20395;-75
2022/03/28 03:16:55;;;;;;;33.05;12.43;;;;;;;6.47;78.75;101057.72;5097803;28;20208;-75
2022/03/28 03:19:21;;;;;;;23.75;11.73;;;;;;;6.44;78.11;101039.53;5101574;28;20322;-75
2022/03/28 03:21:47;;;;;;;31.00;11.65;;;;;;;6.66;77.59;101055.53;5091715;28;20039;-75
2022/03/28 03:24:12;;;;;;;27.75;11.43;;;;;;;6.44;78.40;101071.94;5084047;28;20225;-74
2022/03/28 03:26:38;;;;;;;30.70;11.43;;;;;;;6.46;77.97;101064.78;5093100;28;20024;-74
2022/03/28 03:29:03;;;;;;;25.55;11.57;;;;;;;6.23;79.52;101065.44;5091312;28;20629;-75
2022/03/28 03:31:29;;;;;;;34.13;12.10;;;;;;;6.09;79.78;101056.69;5089804;28;20042;-75
2022/03/28 03:33:54;;;;;;;25.30;11.88;;;;;;;6.34;79.39;101068.25;5089225;28;20036;-74
2022/03/28 03:36:20;;;;;;;33.83;12.52;;;;;;;6.43;77.61;101074.66;5084975;28;20038;-74
2022/03/28 03:38:46;;;;;;;30.52;12.57;;;;;;;6.62;76.62;101080.38;5091418;28;20039;-75
2022/03/28 03:41:12;;;;;;;28.95;12.18;;;;;;;6.80;75.88;101080.91;5088133;28;20036;-75
2022/03/28 03:43:37;;;;;;;26.58;13.32;;;;;;;7.09;73.34;101092.06;5083583;28;20024;-75
2022/03/28 03:46:02;;;;;;;34.13;11.68;;;;;;;7.10;73.44;101086.69;5091201;28;20290;-74
2022/03/28 03:48:29;;;;;;;31.05;11.82;;;;;;;7.29;72.45;101087.09;5086911;28;20040;-74
2022/03/28 03:50:55;;;;;;;30.75;11.50;;;;;;;7.64;69.98;101086.38;5087381;28;20024;-75
2022/03/28 03:53:21;;;;;;;24.30;10.75;;;;;;;7.86;68.80;101069.84;5092309;28;20063;-74
2022/03/28 03:55:47;;;;;;;27.90;11.02;;;;;;;7.95;67.99;101071.81;5087207;28;20038;-75
2022/03/28 03:58:13;;;;;;;29.83;11.35;;;;;;;8.14;68.06;101084.47;5104098;28;20088;-76
2022/03/28 04:00:40;;;;;;;25.77;11.23;;;;;;;8.44;66.61;101103.38;5098585;28;20116;-74
2022/03/28 04:03:06;;;;;;;28.70;11.43;;;;;;;8.53;65.74;101109.75;5087969;28;20047;-76
2022/03/28 04:05:32;;;;;;;25.25;11.65;;;;;;;8.63;64.89;101106.31;5086860;28;20024;-75
2022/03/28 04:07:59;;;;;;;29.30;10.85;;;;;;;8.60;64.49;101105.69;5088563;28;20341;-75
2022/03/28 04:10:24;;;;;;;31.55;11.30;;;;;;;8.78;64.15;101117.50;5087153;28;20036;-75
2022/03/28 04:12:49;;;;;;;32.78;11.15;;;;;;;8.80;64.00;101118.22;5083905;28;20027;-75
2022/03/28 04:15:15;;;;;;;24.90;10.55;;;;;;;8.86;63.21;101124.84;5081875;28;20033;-75
2022/03/28 04:17:45;;;;;;;26.20;11.45;;;;;;;8.75;63.25;101114.25;5083366;28;20300;-75
2022/03/28 04:20:13;;;;;;;31.52;12.65;;;;;;;8.74;63.25;101116.03;5083881;28;20048;-75
2022/03/28 04:22:43;;;;;;;27.77;11.88;;;;;;;8.75;63.24;101127.44;5098769;28;20052;-75
2022/03/28 04:25:09;;;;;;;28.90;12.13;;;;;;;8.65;63.24;101137.88;5092280;28;20043;-76
2022/03/28 04:27:36;;;;;;;43.10;14.80;;;;;;;8.72;62.65;101138.25;5088559;28;20028;-75
2022/03/28 04:30:04;;;;;;;63.53;17.35;;;;;;;8.45;63.71;101138.53;5083661;28;20041;-76
2022/03/28 04:32:30;;;;;;;53.67;17.98;;;;;;;8.25;63.91;101121.47;5083178;28;20032;-75
2022/03/28 04:34:55;;;;;;;43.15;16.83;;;;;;;8.34;63.66;101151.69;5089534;28;20085;-74
2022/03/28 04:37:21;;;;;;;38.30;14.55;;;;;;;8.23;63.43;101150.59;5083826;28;20139;-74
2022/03/28 04:39:46;;;;;;;41.22;16.55;;;;;;;8.20;63.22;101142.91;5089539;28;20039;-74
2022/03/28 04:42:12;;;;;;;40.45;14.27;;;;;;;8.27;63.64;101157.34;5084205;28;20112;-75
2022/03/28 04:44:37;;;;;;;28.77;14.05;;;;;;;8.01;64.09;101127.59;5083477;28;20036;-75
2022/03/28 04:47:03;;;;;;;39.83;11.93;;;;;;;8.08;64.50;101142.97;5085107;28;20032;-74
2022/03/28 04:49:28;;;;;;;42.50;12.50;;;;;;;8.01;63.91;101156.59;5093038;28;20036;-75
2022/03/28 04:51:54;;;;;;;38.97;13.27;;;;;;;7.95;65.22;101161.47;5101784;28;20085;-76
2022/03/28 04:54:19;;;;;;;37.60;12.95;;;;;;;8.07;64.58;101172.94;5102131;28;20107;-74
2022/03/28 04:56:44;;;;;;;35.80;14.73;;;;;;;8.29;63.86;101160.72;5103396;28;20102;-75
2022/03/28 04:59:11;;;;;;;51.15;16.33;;;;;;;8.30;63.09;101141.28;5102316;28;20032;-75
2022/03/28 05:01:36;;;;;;;43.95;15.13;;;;;;;8.38;62.89;101158.41;5102153;28;20056;-74
2022/03/28 05:04:02;;;;;;;50.75;15.70;;;;;;;8.35;63.79;101172.69;5103629;28;20086;-74
2022/03/28 05:06:27;;;;;;;43.28;15.32;;;;;;;8.41;63.62;101174.03;5101877;28;20326;-75
2022/03/28 05:08:53;;;;;;;43.28;15.70;;;;;;;8.40;63.57;101177.63;5092620;28;20039;-74
2022/03/28 05:11:22;;;;;;;36.72;13.63;;;;;;;8.00;64.01;101154.09;5083701;28;20322;-74
2022/03/28 05:13:50;;;;;;;37.33;14.90;;;;;;;8.34;63.48;101164.88;5083908;28;20036;-74
2022/03/28 05:16:16;;;;;;;39.80;14.18;;;;;;;8.71;62.70;101174.38;5083470;28;20039;-76
2022/03/28 05:18:42;;;;;;;42.60;15.38;;;;;;;8.58;62.95;101179.72;5082443;28;20028;-74
2022/03/28 05:21:07;;;;;;;41.03;15.57;;;;;;;8.81;62.20;101178.00;5083508;28;20051;-74
2022/03/28 05:23:33;;;;;;;34.65;14.45;;;;;;;8.96;61.93;101173.38;5083561;28;20040;-74
2022/03/28 05:25:58;;;;;;;32.50;15.18;;;;;;;9.10;61.70;101167.88;5083525;28;20044;-76
2022/03/28 05:28:24;;;;;;;47.35;15.85;;;;;;;9.20;61.60;101179.41;5083394;28;20040;-76
2022/03/28 05:30:49;;;;;;;63.97;16.77;;;;;;;9.41;60.86;101178.72;5082136;28;20078;-74
2022/03/28 05:33:15;;;;;;;36.45;13.48;;;;;;;9.78;60.26;101177.53;5082197;28;20021;-76
2022/03/28 05:35:44;;;;;;;37.97;13.43;;;;;;;10.21;58.31;101174.09;5083292;28;20044;-73
2022/03/28 05:38:11;;;;;;;36.28;14.43;;;;;;;10.68;56.91;101185.25;5083311;28;20087;-74
2022/03/28 05:40:36;;;;;;;36.33;13.15;;;;;;;10.90;56.19;101190.44;5083256;28;20040;-76
2022/03/28 05:43:03;;;;;;;36.78;13.85;;;;;;;11.28;54.69;101187.19;5083232;28;20040;-76
2022/03/28 05:45:29;;;;;;;32.92;14.32;;;;;;;11.35;54.72;101177.72;5082715;28;20238;-75
2022/03/28 05:47:54;;;;;;;33.75;12.88;;;;;;;11.50;55.17;101192.34;5081911;28;20028;-75
2022/03/28 05:50:20;;;;;;;28.20;13.23;;;;;;;11.55;54.94;101178.69;5082951;28;20040;-74
2022/03/28 05:52:46;;;;;;;34.92;13.60;;;;;;;11.38;55.19;101192.53;5081796;28;20021;-75
2022/03/28 05:55:11;;;;;;;43.88;12.52;;;;;;;11.61;54.59;101188.78;5082995;28;20035;-76
2022/03/28 05:57:37;;;;;;;39.03;12.95;;;;;;;11.85;53.67;101193.78;5081799;28;20218;-75
2022/03/28 06:00:05;;;;;;;38.35;12.65;;;;;;;12.19;52.77;101194.28;5082477;28;20036;-75
2022/03/28 06:02:31;;;;;;;30.65;12.52;;;;;;;12.48;51.98;101189.00;5091095;28;20102;-75
2022/03/28 06:04:57;;;;;;;32.75;13.00;;;;;;;12.78;51.66;101190.69;5093399;28;20043;-76
2022/03/28 06:07:22;;;;;;;36.58;13.18;;;;;;;13.00;50.59;101190.41;5094816;28;20085;-76
2022/03/28 06:09:48;;;;;;;27.58;11.15;;;;;;;13.29;49.57;101192.19;5094247;28;20052;-75
2022/03/28 06:12:15;;;;;;;22.75;11.55;;;;;;;13.09;48.70;101189.53;5093677;28;20027;-76
2022/03/28 06:14:40;;;;;;;32.33;9.80;;;;;;;13.13;49.02;101194.56;5094839;28;20035;-76
2022/03/28 06:17:06;;;;;;;21.27;9.70;;;;;;;13.20;48.13;101172.59;5092832;28;20023;-79
2022/03/28 06:19:31;;;;;;;20.77;9.10;;;;;;;13.20;48.71;101190.38;5091138;28;20035;-75
2022/03/28 06:21:56;;;;;;;25.50;9.45;;;;;;;13.21;48.74;101168.97;5095332;28;20233;-77
2022/03/28 06:24:22;;;;;;;26.38;9.38;;;;;;;13.74;47.12;101192.31;5092609;28;20024;-75
2022/03/28 06:26:47;;;;;;;19.73;10.35;;;;;;;14.25;45.80;101193.56;5095137;28;20062;-76
2022/03/28 06:29:13;;;;;;;21.70;9.57;;;;;;;14.59;44.88;101189.31;5092450;28;20450;-76
2022/03/28 06:31:38;;;;;;;22.08;9.27;;;;;;;14.71;44.13;101168.59;5094798;28;20072;-76
2022/03/28 06:34:04;;;;;;;19.73;9.98;;;;;;;14.77;43.84;101183.97;5093522;28;20111;-75
2022/03/28 06:36:30;;;;;;;23.30;9.40;;;;;;;14.78;43.80;101188.31;5094091;28;20028;-76
2022/03/28 06:38:56;;;;;;;20.05;9.02;;;;;;;14.82;43.32;101186.16;5095724;28;20031;-75
2022/03/28 06:41:22;;;;;;;19.88;8.95;;;;;;;14.83;43.45;101162.00;5093459;28;20344;-76
2022/03/28 06:43:48;;;;;;;22.25;9.10;;;;;;;15.13;42.30;101183.91;5095346;28;20056;-75
2022/03/28 06:46:13;;;;;;;25.55;9.68;;;;;;;14.99;43.20;101180.81;5095631;28;20032;-76
2022/03/28 06:48:39;;;;;;;28.75;10.38;;;;;;;14.85;42.81;101191.19;5093867;28;20252;-76
2022/03/28 06:51:06;;;;;;;25.73;10.23;;;;;;;15.20;41.92;101171.59;5093805;28;20084;-76
2022/03/28 06:53:31;;;;;;;29.30;9.30;;;;;;;15.30;41.48;101189.19;5094779;28;20038;-76
2022/03/28 06:55:58;;;;;;;27.92;10.23;;;;;;;15.29;41.63;101195.50;5094385;28;20020;-76
2022/03/28 06:58:24;;;;;;;22.30;9.63;;;;;;;15.31;41.39;101190.84;5092901;28;20032;-76
2022/03/28 07:00:50;;;;;;;25.65;10.68;;;;;;;15.73;40.98;101176.78;5095463;28;20318;-76
2022/03/28 07:03:15;;;;;;;23.02;10.23;;;;;;;15.60;41.16;101177.22;5092747;28;20535;-77
2022/03/28 07:05:41;;;;;;;26.73;10.85;;;;;;;15.41;41.82;101180.06;5093545;28;20322;-75
2022/03/28 07:08:07;;;;;;;30.65;11.27;;;;;;;15.61;41.16;101183.41;5096094;28;20048;-76
2022/03/28 07:10:33;;;;;;;25.17;10.02;;;;;;;15.71;40.84;101152.06;5092357;28;20059;-75
2022/03/28 07:12:59;;;;;;;22.08;10.07;;;;;;;15.91;40.49;101174.84;5122732;28;20020;-77
2022/03/28 07:15:26;;;;;;;20.67;9.93;;;;;;;16.40;39.12;101171.44;5095008;28;20559;-75
2022/03/28 07:18:02;;;;;;;22.27;10.70;;;;;;;16.36;38.54;101159.41;5092823;28;20032;-75
2022/03/28 07:20:29;;;;;;;26.10;9.75;;;;;;;16.34;38.07;101164.91;5093370;28;20024;-77
2022/03/28 07:22:56;;;;;;;25.30;10.85;;;;;;;16.15;38.98;101170.56;5094347;28;20040;-75
2022/03/28 07:25:23;;;;;;;20.75;10.20;;;;;;;16.54;38.27;101170.78;5097811;28;20028;-75
2022/03/28 07:27:50;;;;;;;22.05;10.75;;;;;;;16.55;38.26;101165.28;5097702;28;20099;-77
2022/03/28 07:30:17;;;;;;;25.50;10.85;;;;;;;16.94;37.46;101161.97;5101989;28;20032;-76
2022/03/28 07:32:43;;;;;;;24.17;11.50;;;;;;;17.17;37.16;101156.75;5102555;28;20241;-75
2022/03/28 07:35:10;;;;;;;25.25;11.07;;;;;;;17.62;36.26;101157.97;5096944;28;20035;-77
2022/03/28 07:37:37;;;;;;;26.30;11.00;;;;;;;17.34;36.74;101169.09;5097130;28;20135;-76
2022/03/28 07:40:03;;;;;;;28.98;11.80;;;;;;;17.31;36.58;101155.22;5095674;28;20107;-76
2022/03/28 07:42:29;;;;;;;23.83;10.73;;;;;;;17.67;36.15;101161.00;5099296;28;20431;-77
2022/03/28 07:44:56;;;;;;;23.45;10.82;;;;;;;18.23;35.41;101162.56;5095876;28;20040;-75
2022/03/28 07:47:27;;;;;;;32.20;10.95;;;;;;;18.40;34.27;101141.84;5095899;28;20032;-76
2022/03/28 07:49:55;;;;;;;21.30;10.50;;;;;;;18.73;34.19;101148.66;5097282;28;20030;-76
2022/03/28 07:52:21;;;;;;;24.63;11.00;;;;;;;19.09;34.05;101140.78;5097732;28;20036;-76
2022/03/28 07:54:48;;;;;;;24.30;10.93;;;;;;;19.33;33.75;101142.34;5096551;28;20310;-77
2022/03/28 07:57:14;;;;;;;23.45;10.82;;;;;;;19.21;33.33;101141.16;5096424;28;20035;-77
2022/03/28 07:59:46;;;;;;;22.45;10.15;;;;;;;18.94;33.72;101139.91;5097491;28;20072;-76
2022/03/28 08:02:11;;;;;;;34.00;11.40;;;;;;;19.11;33.72;101141.41;5095760;28;20045;-75
2022/03/28 08:04:37;;;;;;;30.00;11.50;;;;;;;19.29;32.79;101135.69;5096066;28;20307;-75
2022/03/28 08:07:05;;;;;;;27.63;11.43;;;;;;;19.50;32.40;101134.09;5098796;28;20036;-77
2022/03/28 08:09:31;;;;;;;33.53;11.80;;;;;;;18.96;33.89;101097.63;5096213;28;20048;-76
2022/03/28 08:11:57;;;;;;;20.77;11.57;;;;;;;19.00;33.18;101131.13;5095691;28;20337;-77
2022/03/28 08:14:23;;;;;;;29.83;12.13;;;;;;;19.28;32.99;101125.13;5097722;28;20036;-77
2022/03/28 08:16:49;;;;;;;28.63;12.77;;;;;;;18.77;33.75;101115.09;5095599;28;20092;-77
2022/03/28 08:19:14;;;;;;;34.83;15.43;;;;;;;18.89;34.20;101107.44;5096771;28;20055;-77
2022/03/28 08:21:40;;;;;;;29.60;14.13;;;;;;;18.32;35.65;101115.06;5097968;28;20028;-75
2022/03/28 08:24:06;;;;;;;30.05;13.07;;;;;;;17.94;35.04;101117.69;5095302;28;20047;-75
2022/03/28 08:26:31;;;;;;;23.42;11.10;;;;;;;18.36;35.84;101102.97;5096470;28;20020;-77
2022/03/28 08:28:57;;;;;;;27.30;11.50;;;;;;;18.19;35.77;101100.41;5096775;28;20330;-76
2022/03/28 08:31:22;;;;;;;15.98;10.75;;;;;;;17.52;36.65;101093.91;5095130;28;20084;-77
2022/03/28 08:33:48;;;;;;;23.77;11.45;;;;;;;17.17;37.36;101100.56;5096974;28;20047;-77
2022/03/28 08:36:14;;;;;;;20.90;11.20;;;;;;;17.28;37.59;101097.50;5095613;28;20405;-75
2022/03/28 08:38:39;;;;;;;22.67;9.98;;;;;;;17.20;37.64;101090.34;5095848;28;20280;-75
2022/03/28 08:41:11;;;;;;;20.17;9.73;;;;;;;17.70;36.50;101051.69;5097445;28;20038;-77
2022/03/28 08:43:37;;;;;;;22.05;10.50;;;;;;;18.19;36.17;101089.69;5097272;28;20039;-76
2022/03/28 08:46:04;;;;;;;21.95;10.88;;;;;;;18.08;37.16;101075.88;5094270;28;20036;-76
2022/03/28 08:48:33;;;;;;;23.70;10.43;;;;;;;17.88;36.35;101070.16;5097361;28;20028;-74
2022/03/28 08:50:59;;;;;;;20.77;10.85;;;;;;;18.00;37.65;101057.19;5096646;28;20218;-76
2022/03/28 08:53:24;;;;;;;17.67;10.38;;;;;;;18.25;36.28;101055.13;5096443;28;20024;-76
2022/03/28 08:55:51;;;;;;;26.13;11.55;;;;;;;18.25;36.88;101063.19;5095898;28;20032;-77
2022/03/28 08:58:17;;;;;;;23.42;11.38;;;;;;;17.65;37.34;101061.19;5095845;28;20037;-76
2022/03/28 09:00:42;;;;;;;22.05;11.40;;;;;;;17.18;37.69;101048.69;5095248;28;20071;-76
2022/03/28 09:03:08;;;;;;;21.70;11.40;;;;;;;17.52;37.61;101048.38;5094366;28;20035;-75
2022/03/28 09:05:36;;;;;;;26.75;11.50;;;;;;;18.01;36.65;101030.19;5097303;28;20058;-77
2022/03/28 09:08:05;;;;;;;30.75;11.90;;;;;;;17.98;37.28;101033.25;5094307;28;20469;-77
2022/03/28 09:10:35;;;;;;;22.70;9.85;;;;;;;17.98;39.42;101037.75;5094465;28;20028;-75
2022/03/28 09:13:12;;;;;;;19.42;10.88;;;;;;;17.21;38.41;101043.00;5095975;28;20109;-75
2022/03/28 09:15:42;;;;;;;23.13;11.13;;;;;;;17.58;38.02;101034.28;5096494;28;20036;-77
2022/03/28 09:18:18;;;;;;;21.52;10.57;;;;;;;17.96;37.04;101013.81;5094253;28;20354;-75
2022/03/28 09:20:47;;;;;;;18.35;10.30;;;;;;;17.71;37.69;101020.38;5093622;28;20169;-75
2022/03/28 09:23:36;;;;;;;24.67;9.75;;;;;;;18.07;36.92;101021.44;5093752;28;20103;-77
2022/03/28 09:26:13;;;;;;;20.95;9.80;;;;;;;17.29;37.24;101008.16;5092564;28;20256;-77
2022/03/28 09:28:46;;;;;;;29.35;10.82;;;;;;;17.57;37.80;101008.50;5094045;28;20106;-76
2022/03/28 09:31:36;;;;;;;20.30;10.20;;;;;;;17.67;37.68;100990.38;5095356;28;20020;-76
2022/03/28 09:34:10;;;;;;;23.63;10.30;;;;;;;17.39;38.70;100994.56;5094208;28;20095;-77
2022/03/28 09:36:49;;;;;;;22.23;9.82;;;;;;;17.59;38.54;100992.25;5094197;28;20214;-77
2022/03/28 09:39:20;;;;;;;27.45;11.27;;;;;;;17.63;38.37;100996.25;5094915;28;20349;-77
2022/03/28 09:41:56;;;;;;;25.42;10.43;;;;;;;17.42;38.67;100989.69;5095818;28;20114;-74
2022/03/28 09:44:32;;;;;;;26.20;10.73;;;;;;;16.98;39.64;100991.25;5093996;28;20300;-75
2022/03/28 09:47:08;;;;;;;22.67;9.82;;;;;;;17.05;39.40;100984.19;5093910;28;20326;-77
2022/03/28 09:49:33;;;;;;;66.93;12.25;;;;;;;17.00;38.90;100984.72;5093769;28;20024;-75
2022/03/28 09:52:29;;;;;;;26.60;10.35;;;;;;;17.28;38.58;100976.22;5096413;28;20031;-76
2022/03/28 09:54:57;;;;;;;26.45;11.07;;;;;;;17.84;37.59;100970.53;5091282;28;20051;-75
2022/03/28 09:57:28;;;;;;;23.85;11.02;;;;;;;17.41;38.20;100963.09;5095355;28;20032;-77
2022/03/28 10:00:09;;;;;;;26.92;11.15;;;;;;;16.90;38.46;100968.84;5095592;28;20039;-76
2022/03/28 10:02:38;;;;;;;25.35;10.25;;;;;;;16.86;39.15;100961.34;5094765;28;20891;-75
2022/03/28 10:05:04;;;;;;;19.10;10.48;;;;;;;17.07;38.36;100958.09;5093612;28;20036;-75
2022/03/28 10:07:31;;;;;;;25.25;10.43;;;;;;;17.26;38.06;100944.25;5093736;28;20016;-75
2022/03/28 10:09:58;;;;;;;21.27;10.43;;;;;;;17.28;38.23;100942.25;5095485;28;20072;-76
2022/03/28 10:12:24;;;;;;;20.25;9.55;;;;;;;17.39;37.41;100941.84;5093479;28;20042;-76
2022/03/28 10:14:54;;;;;;;22.95;11.63;;;;;;;17.32;38.30;100937.38;5095628;28;20035;-76
2022/03/28 10:17:20;;;;;;;20.35;10.18;;;;;;;17.22;38.30;100927.72;5094932;28;20027;-76
2022/03/28 10:19:46;;;;;;;27.98;10.48;;;;;;;17.10;38.68;100920.28;5093139;28;20033;-77
2022/03/28 10:22:20;;;;;;;15.65;9.25;;;;;;;17.11;38.20;100922.78;5094278;28;20027;-76
2022/03/28 10:24:47;;;;;;;25.05;9.68;;;;;;;16.87;39.15;100906.84;5094679;28;20337;-77
2022/03/28 10:27:12;;;;;;;21.83;9.77;;;;;;;17.19;37.78;100906.66;5095212;28;20035;-76
2022/03/28 10:29:41;;;;;;;20.15;10.43;;;;;;;17.11;38.90;100906.72;5094719;28;20288;-76
2022/03/28 10:32:19;;;;;;;20.52;9.45;;;;;;;17.59;36.99;100894.00;5093044;28;20039;-77
2022/03/28 10:34:46;;;;;;;21.20;9.85;;;;;;;17.51;37.16;100889.53;5094037;28;20240;-77
2022/03/28 10:37:29;;;;;;;22.92;9.90;;;;;;;17.90;35.87;100885.09;5095852;28;20020;-77
2022/03/28 10:40:25;;;;;;;20.98;9.80;;;;;;;17.82;36.81;100881.47;5095210;28;20048;-75
2022/03/28 10:43:09;;;;;;;20.10;9.55;;;;;;;18.01;36.60;100871.25;5092805;28;20040;-76
2022/03/28 10:45:49;;;;;;;20.23;9.43;;;;;;;17.99;36.15;100859.88;5092548;28;20038;-77
2022/03/28 10:48:16;;;;;;;20.52;9.85;;;;;;;17.55;36.28;100855.19;5093289;28;20373;-77
2022/03/28 10:50:53;;;;;;;24.45;11.35;;;;;;;17.49;36.58;100854.06;5094193;28;20337;-77
2022/03/28 10:53:33;;;;;;;22.88;10.10;;;;;;;17.59;36.68;100850.31;5095492;28;20036;-76
2022/03/28 10:56:02;;;;;;;21.75;11.00;;;;;;;17.49;36.15;100843.38;5094386;28;20230;-77
2022/03/28 10:58:45;;;;;;;24.70;10.18;;;;;;;17.42;35.73;100794.22;5093383;28;20262;-77
2022/03/28 11:01:13;;;;;;;17.25;9.13;;;;;;;18.25;34.63;100833.44;5098057;28;20053;-77
2022/03/28 11:03:43;;;;;;;36.13;10.75;;;;;;;18.47;34.99;100829.81;5096373;28;20039;-75
2022/03/28 11:06:09;;;;;;;22.15;10.48;;;;;;;18.58;34.02;100815.09;5098028;28;20352;-76
2022/03/28 11:08:36;;;;;;;21.45;8.75;;;;;;;18.64;33.76;100819.75;5097961;28;20044;-77
2022/03/28 11:11:23;;;;;;;20.73;9.43;;;;;;;18.53;34.57;100812.16;5097882;28;20036;-77
2022/03/28 11:14:09;;;;;;;21.15;8.85;;;;;;;18.38;35.13;100812.19;5100038;28;20070;-75
2022/03/28 11:16:52;;;;;;;25.40;9.48;;;;;;;18.26;34.36;100802.94;5099528;28;20058;-75
2022/03/28 11:19:22;;;;;;;18.17;9.43;;;;;;;17.71;35.81;100801.53;5099511;28;20032;-77